Hovedside
METAR-TAF:

METAR-TAF

Lufthavner :

Teheran, Iran

breddegrad: 35-41N, lengdegrad: 051-21E, høyde over havet: 1204 m

Gjeldene værobservasjon

Denne rapporten ble laget for 26 minutter siden, klokken 20:00 UTC
Vind 6 kt fra Vest-nordvest
Temperatur 8°C
Luftfuktighet 66%
Trykk 1023 hPa
Sikt: 6000 m

METAR: OIII 142000Z 29006KT 6000 NSC 08/02 Q1022 A3020 NOSIG

Tid: 23:56 (20:26 UTC)

Varsel

Denne rapporten ble laget for 2 timer og 36 minutter siden, klokken 17:50 UTC
Varsel gyldig fra 14. klokken 18 UTC til 15. klokken 24 UTC
Vind 6 kt fra Nordvest
Sikt: 6000 m
Blir
fra 14. klokken 20 UTC til 14. klokken 22 UTC
Sikt: 5000 m
dis
Midlertidig
fra 15. klokken 00 UTC til 15. klokken 05 UTC
Sikt: 3000 m
dis
Blir
fra 15. klokken 06 UTC til 15. klokken 08 UTC
Sikt: 7000 m
Midlertidig
fra 15. klokken 09 UTC til 15. klokken 15 UTC
Vind 16 kt fra Vest

TAF: OIII 141750Z 1418/1524 32006KT 6000 NSC BECMG 1420/1422 5000 HZ TEMPO 1500/1505 3000 HZ BECMG 1506/1508 7000 TEMPO 1509/1515 28016KT

Værobservasjoner og værvarsel for over 4000 flyplasser (METAR- og TAF-rapporter).

Tilgjengelige stasjoner er representert av de røde og gule prikkene på kartet.

Hold musepekeren over prikken for å se navnet på stasjonen.

Klikk så for å se værobservasjoner og -varsler.

For å forandre kartet kan du klikke på den grønne knappen med svart kryss for å zoome inn, på den grønne knappen med strek for å zoome ut, eller på de grønne pilene for å se tilstøtende kart.


METAR-TAF: